Low temp

Not for real navigation. The accuracy of this data is not assured See disclaimer for more information



ICAO NAME COUNTRY WIND Kt GUST Kt VIS m TEMP/DEW C BARO METAR
NZSP Amundsen-Scott South Pole Stat Antarctica 15 0 2400 -52/0 28.72 NZSP 271150Z 04015KT 2400 BLSN FEW010 BKN060 M52/ A2872 RMK CLN AIR 02014G19KT ALL WNDS GRID
KCFJ 5 0 11200 -37/-37 29.89 KCFJ 271315Z AUTO 33005KT 7SM OVC007 M37/M37 A2989 RMK AO2 P0001 T13701370
NZCM Williams Field Antarctica 3 0 9999 -18/-22 29.05 NZCM 271155Z VRB03KT 9999 FEW060 M18/M22 A2905 RMK SLP843
SCRM 6 0 9999 -9/-14 29.62 SCRM 271300Z 11006KT 9999 FEW040 M09/M14 Q1003
CYUX Hall Beach, N. W. T. Canada 2 0 24000 -8/-9 30.25 CYUX 271300Z 31002KT 15SM FEW010 BKN240 M08/M09 A3025 RMK SC1CS5 HALO CC EMBD SLP247

Show more